Богашево

Карта отелей и гостиниц, располагающихся рядом с аэропортом Богашево :

Богашево
Томск
Томская область 56° 22' 59.2788" N, 85° 12' 37.8612" E
Код аэродрома ИКАО
UNTT
Код аэродрома RU
УНТТ
Координаты
N56.38313° E085.21052°
Превышение над уровнем моря
182
Основная полоса
03L/21R
Курс магнитный
024,9/204,9
Длина основной ВПП
2500
Ширина основной ВПП
50
Покрытие основной ВПП
Твёрдое (асфальтобетон)
Освещение ВПП
Постоянное
Тип: 
Аэродром
Класс аэродрома: 
Международный
Принадлежность: 
ГА
Статус: 
Действующий
Сайт: 
http://airport.tomsk.ru/
Страна: 
Россия
Регион: 
Томская область
Город: 
Томск
Дополнительная информация: 
Военный индекс: XNTT / ЬНТТ.
Схемы аэропортов: 
Погода: 

Авиационная погода в Богашево

Регион: 
Погода METAR: 
UNTT 221800Z 22002MPS 7000 FEW009 M21/M24 Q1032 R21/420150 NOSIG RMK QFE759
Время наблюдения
2022-01-22T18:00:00Z
Температура C
-21.0
Точка росы
-24.0
Направление ветра
220
Скорость ветра (узлы)
4
Метео видимость
4.35
Облачность
FEW
Нижняя граница облачности (футы)
900
Явления погоды
Условия полета
MVFR
Аэропорт подробнее: 
FEW – незначительная облачность;

Найти трансфер

С помощью этой формы Вы можете найти трансфер из аэропорта Богашево в город, аэропорт или вокзал:

Погода в аэропортах:

Авиационная погода в Емельяново

Регион: 
Погода METAR: 
UNKL 221800Z 00000MPS 5000 -SN BR SCT018 M18/M20 Q1032 R29/490140 NOSIG RMK QFE748
Время наблюдения
2022-01-22T18:00:00Z
Температура C
-18.0
Точка росы
-20.0
Направление ветра
0
Скорость ветра (узлы)
0
Метео видимость
3.11
Облачность
SCT
Нижняя граница облачности (футы)
1800
Явления погоды
-SN BR
Условия полета
MVFR
Аэропорт подробнее: 
SCT – разбросанная отдельная облачность;
-SN – слабый снег; BR – дымка (видимость от 1 до 9 км);

Авиационная погода в Храброво

Регион: 
Погода METAR: 
UMKK 221800Z 35006MPS 8000 2300E -SHSN SCT008 BKN016CB 01/M02 Q1023 R24/690195 NOSIG RMK QFE766/1021
Время наблюдения
2022-01-22T18:00:00Z
Температура C
1.0
Точка росы
-2.0
Направление ветра
350
Скорость ветра (узлы)
12
Метео видимость
4.97
Облачность
SCT
BKN
Нижняя граница облачности (футы)
800
1600
Явления погоды
-SHSN
Условия полета
MVFR
Аэропорт подробнее: 
SCT – разбросанная отдельная облачность; BKN – значительная (рассеянная, разорванная) облачность;
-SHSN - слабый ливневой снег;

Авиационная погода в Якутске

Регион: 
Погода METAR: 
UEEE 221800Z 02002MPS 9999 -SN NSC M31/M34 Q1027 R23L/490150 NOSIG RMK QFE761
Время наблюдения
2022-01-22T18:00:00Z
Температура C
-31.0
Точка росы
-34.0
Направление ветра
20
Скорость ветра (узлы)
4
Метео видимость
6.21
Облачность
CLR
Нижняя граница облачности (футы)
Явления погоды
-SN
Условия полета
VFR
Аэропорт подробнее: 
CLR — нет облаков ниже 3000 м
-SN – слабый снег;

Авиационная погода в Ульяновске

Регион: 
Погода METAR: 
UWLW 221800Z 14006MPS 1600 R20/2000 SN BLSN OVC019 M05/M06 Q1020 R20/491540 TEMPO 15010MPS 0500 +SN BLSN VV003 RMK QFE760
Время наблюдения
2022-01-22T18:00:00Z
Температура C
-5.0
Точка росы
-6.0
Направление ветра
140
Скорость ветра (узлы)
12
Метео видимость
0.99
Облачность
OVC
Нижняя граница облачности (футы)
1900
Явления погоды
BLSN SN
Условия полета
LIFR
Аэропорт подробнее: 
OVC – сплошная облачность;
BLSN – метель низовая или общая;